Home   Weather   Neukölln   Past weeks
Flag for Germany

Past Weather in Neukölln, Berlin, Germany — May 2021

Currently: 72 °F. Passing clouds. (Weather station: Berlin-Schoenefeld, Germany). See more current weather

May 2021 Weather in Neukölln — Graph

°F

High & Low Weather Summary for May 2021

 TemperatureHumidityPressure
High84 °F (May 10, 3:20 pm)100% (May 7, 12:20 pm)30.33 "Hg (May 7, 12:20 pm)
Low34 °F (May 7, 12:20 pm)21% (May 31, 3:50 pm)29.45 "Hg (May 4, 5:50 pm)
Average54 °F69%29.84 "Hg
* Reported May 1 12:20 am — May 31 11:50 pm, Neukölln. Weather by CustomWeather, © 2022

Note: Actual official high and low records may vary slightly from our data, if they occured in-between our weather recording intervals... More about our weather records

Neukölln Weather History for May 1, 2021

Scroll right to see more
 ConditionsComfort  
Time TempWeatherWind HumidityBarometerVisibility
12:20 am
Sat, May 1
45 °FPassing clouds.5 mph81%29.95 "HgN/A
1:50 am43 °FPassing clouds.3 mph87%29.95 "HgN/A
2:20 am43 °FPassing clouds.3 mph87%29.95 "HgN/A
3:20 am43 °FPassing clouds.3 mph87%29.95 "HgN/A
3:50 am43 °FPassing clouds.2 mph87%29.95 "HgN/A
4:20 am43 °FPassing clouds.5 mph87%29.95 "HgN/A
4:50 am43 °FPartly cloudy.5 mph87%29.95 "HgN/A
5:20 am43 °FPassing clouds.3 mph87%29.95 "HgN/A
5:50 am43 °FPartly sunny.3 mph87%29.95 "HgN/A
6:20 am43 °FPartly sunny.1 mph93%29.95 "HgN/A
6:50 am43 °FPartly sunny.3 mph93%29.95 "HgN/A
7:20 am43 °FPartly sunny.5 mph93%29.95 "HgN/A
7:50 am43 °FBroken clouds.3 mph93%29.95 "HgN/A
8:20 am45 °FBroken clouds.3 mph87%29.95 "HgN/A
8:50 am45 °FBroken clouds.2 mph87%29.95 "HgN/A
9:20 am45 °FBroken clouds.3 mph87%29.95 "HgN/A
9:50 am46 °FScattered clouds.3 mph87%29.95 "HgN/A
10:20 am48 °FPassing clouds.5 mph82%29.95 "HgN/A
10:50 am52 °FScattered clouds.3 mph72%29.95 "HgN/A
11:20 am54 °FScattered clouds.2 mph63%29.95 "HgN/A
11:50 am54 °FPartly sunny.5 mph63%29.92 "HgN/A
12:20 pm54 °FPartly sunny.2 mph54%29.92 "HgN/A
12:50 pm54 °FScattered clouds.2 mph54%29.92 "HgN/A
1:20 pm55 °FPartly sunny.6 mph51%29.92 "HgN/A
1:50 pm54 °FPartly sunny.2 mph51%29.92 "HgN/A
2:20 pm54 °FScattered clouds.5 mph58%29.92 "HgN/A
2:50 pm55 °FPassing clouds.7 mph55%29.92 "HgN/A
3:20 pm55 °FScattered clouds.5 mph59%29.89 "HgN/A
3:50 pm55 °FScattered clouds.7 mph59%29.89 "HgN/A
4:20 pm57 °FScattered clouds.6 mph51%29.89 "HgN/A
4:50 pm55 °FScattered clouds.3 mph51%29.89 "HgN/A
5:20 pm55 °FScattered clouds.3 mph55%29.89 "HgN/A
5:50 pm55 °FPassing clouds.8 mph55%29.89 "HgN/A
6:20 pm55 °FPassing clouds.8 mph59%29.89 "HgN/A
6:50 pm55 °FPassing clouds.8 mph59%29.89 "HgN/A
7:20 pm54 °FPassing clouds.9 mph63%29.89 "HgN/A
7:50 pm52 °FPassing clouds.9 mph67%29.89 "HgN/A
8:20 pm50 °FPassing clouds.7 mph71%29.89 "HgN/A
8:50 pm50 °FClear.7 mph71%29.89 "Hg10 mi
9:20 pm48 °FClear.7 mph76%29.89 "Hg10 mi
9:50 pm48 °FClear.7 mph76%29.89 "Hg10 mi
10:20 pm48 °FClear.6 mph76%29.89 "Hg10 mi
10:50 pm46 °FClear.7 mph82%29.89 "Hg10 mi
11:20 pm46 °FClear.8 mph82%29.86 "Hg10 mi
11:50 pm46 °FClear.7 mph87%29.86 "Hg10 mi
Weather by CustomWeather, © 2022

See weather overview